sensor_id;sensor_type;location;lat;lon;timestamp;P1;durP1;ratioP1;P2;durP2;ratioP2
11608;SDS011;5860;52.018;8.536;2023-09-19T00:00:44;4.90;;;3.00;;
11608;SDS011;5860;52.018;8.536;2023-09-19T00:03:14;4.83;;;3.13;;
11608;SDS011;5860;52.018;8.536;2023-09-19T00:05:41;7.17;;;3.10;;
11608;SDS011;5860;52.018;8.536;2023-09-19T00:08:10;5.83;;;3.40;;
11608;SDS011;5860;52.018;8.536;2023-09-19T00:10:40;5.87;;;3.30;;
11608;SDS011;5860;52.018;8.536;2023-09-19T00:13:08;5.97;;;3.60;;
11608;SDS011;5860;52.018;8.536;2023-09-19T00:15:41;6.43;;;3.63;;
11608;SDS011;5860;52.018;8.536;2023-09-19T00:18:19;4.67;;;3.43;;
11608;SDS011;5860;52.018;8.536;2023-09-19T00:21:00;6.93;;;3.57;;
11608;SDS011;5860;52.018;8.536;2023-09-19T00:23:27;4.73;;;3.20;;
11608;SDS011;5860;52.018;8.536;2023-09-19T00:25:54;7.53;;;3.37;;
11608;SDS011;5860;52.018;8.536;2023-09-19T00:28:25;5.63;;;3.23;;
11608;SDS011;5860;52.018;8.536;2023-09-19T00:30:52;7.37;;;3.13;;
11608;SDS011;5860;52.018;8.536;2023-09-19T00:33:21;9.10;;;3.27;;
11608;SDS011;5860;52.018;8.536;2023-09-19T00:35:49;5.37;;;3.00;;
11608;SDS011;5860;52.018;8.536;2023-09-19T00:38:16;7.53;;;3.07;;
11608;SDS011;5860;52.018;8.536;2023-09-19T00:40:47;5.93;;;3.27;;
11608;SDS011;5860;52.018;8.536;2023-09-19T00:43:16;9.83;;;3.50;;
11608;SDS011;5860;52.018;8.536;2023-09-19T00:45:45;8.50;;;3.37;;
11608;SDS011;5860;52.018;8.536;2023-09-19T00:48:17;6.87;;;3.27;;
11608;SDS011;5860;52.018;8.536;2023-09-19T00:50:46;5.87;;;3.20;;
11608;SDS011;5860;52.018;8.536;2023-09-19T00:53:16;7.33;;;3.20;;
11608;SDS011;5860;52.018;8.536;2023-09-19T00:55:46;6.33;;;3.30;;
11608;SDS011;5860;52.018;8.536;2023-09-19T00:58:14;5.00;;;3.17;;
11608;SDS011;5860;52.018;8.536;2023-09-19T01:00:44;5.87;;;3.30;;
11608;SDS011;5860;52.018;8.536;2023-09-19T01:03:12;7.00;;;3.10;;
11608;SDS011;5860;52.018;8.536;2023-09-19T01:05:40;6.60;;;3.10;;
11608;SDS011;5860;52.018;8.536;2023-09-19T01:08:07;5.17;;;2.97;;
11608;SDS011;5860;52.018;8.536;2023-09-19T01:10:34;6.60;;;3.60;;
11608;SDS011;5860;52.018;8.536;2023-09-19T01:18:27;7.20;;;4.00;;
11608;SDS011;5860;52.018;8.536;2023-09-19T01:24:13;5.10;;;4.00;;
11608;SDS011;5860;52.018;8.536;2023-09-19T01:29:42;8.00;;;4.60;;
11608;SDS011;5860;52.018;8.536;2023-09-19T01:32:16;8.97;;;4.37;;
11608;SDS011;5860;52.018;8.536;2023-09-19T01:34:49;7.40;;;4.30;;
11608;SDS011;5860;52.018;8.536;2023-09-19T01:37:24;6.90;;;4.30;;
11608;SDS011;5860;52.018;8.536;2023-09-19T01:39:56;7.43;;;4.03;;
11608;SDS011;5860;52.018;8.536;2023-09-19T01:42:40;8.73;;;3.77;;
11608;SDS011;5860;52.018;8.536;2023-09-19T01:51:05;10.07;;;4.70;;
11608;SDS011;5860;52.018;8.536;2023-09-19T01:53:35;9.00;;;4.50;;
11608;SDS011;5860;52.018;8.536;2023-09-19T01:56:07;8.87;;;4.53;;
11608;SDS011;5860;52.018;8.536;2023-09-19T01:59:13;11.93;;;4.63;;
11608;SDS011;5860;52.018;8.536;2023-09-19T02:01:40;7.10;;;3.90;;
11608;SDS011;5860;52.018;8.536;2023-09-19T02:04:11;14.40;;;4.40;;
11608;SDS011;5860;52.018;8.536;2023-09-19T02:06:40;15.63;;;4.93;;
11608;SDS011;5860;52.018;8.536;2023-09-19T02:09:08;7.77;;;4.80;;
11608;SDS011;5860;52.018;8.536;2023-09-19T02:11:35;10.80;;;4.27;;
11608;SDS011;5860;52.018;8.536;2023-09-19T02:14:03;8.03;;;4.20;;
11608;SDS011;5860;52.018;8.536;2023-09-19T02:16:31;11.73;;;4.77;;
11608;SDS011;5860;52.018;8.536;2023-09-19T02:18:57;10.40;;;4.30;;
11608;SDS011;5860;52.018;8.536;2023-09-19T02:21:26;11.13;;;4.97;;
11608;SDS011;5860;52.018;8.536;2023-09-19T02:23:56;11.07;;;3.90;;
11608;SDS011;5860;52.018;8.536;2023-09-19T02:26:25;7.87;;;3.67;;
11608;SDS011;5860;52.018;8.536;2023-09-19T02:28:53;10.97;;;3.60;;
11608;SDS011;5860;52.018;8.536;2023-09-19T02:31:20;8.30;;;3.53;;
11608;SDS011;5860;52.018;8.536;2023-09-19T02:33:47;12.17;;;3.73;;
11608;SDS011;5860;52.018;8.536;2023-09-19T02:36:14;7.03;;;3.53;;
11608;SDS011;5860;52.018;8.536;2023-09-19T02:38:43;9.20;;;3.07;;
11608;SDS011;5860;52.018;8.536;2023-09-19T02:41:10;7.47;;;3.13;;
11608;SDS011;5860;52.018;8.536;2023-09-19T02:43:38;9.20;;;3.57;;
11608;SDS011;5860;52.018;8.536;2023-09-19T02:46:05;6.57;;;2.83;;
11608;SDS011;5860;52.018;8.536;2023-09-19T02:48:33;9.77;;;3.33;;
11608;SDS011;5860;52.018;8.536;2023-09-19T02:57:24;10.37;;;3.30;;
11608;SDS011;5860;52.018;8.536;2023-09-19T02:59:51;11.17;;;3.17;;
11608;SDS011;5860;52.018;8.536;2023-09-19T03:02:18;10.73;;;3.30;;
11608;SDS011;5860;52.018;8.536;2023-09-19T03:04:45;12.00;;;3.00;;
11608;SDS011;5860;52.018;8.536;2023-09-19T03:07:13;10.73;;;3.17;;
11608;SDS011;5860;52.018;8.536;2023-09-19T03:09:40;11.20;;;3.27;;
11608;SDS011;5860;52.018;8.536;2023-09-19T03:12:07;8.77;;;2.90;;
11608;SDS011;5860;52.018;8.536;2023-09-19T03:14:34;13.07;;;3.43;;
11608;SDS011;5860;52.018;8.536;2023-09-19T03:17:02;8.50;;;2.70;;
11608;SDS011;5860;52.018;8.536;2023-09-19T03:19:33;9.57;;;2.97;;
11608;SDS011;5860;52.018;8.536;2023-09-19T03:22:00;9.07;;;2.97;;
11608;SDS011;5860;52.018;8.536;2023-09-19T03:24:27;12.07;;;3.33;;
11608;SDS011;5860;52.018;8.536;2023-09-19T03:26:54;16.87;;;3.63;;
11608;SDS011;5860;52.018;8.536;2023-09-19T03:29:21;9.20;;;2.97;;
11608;SDS011;5860;52.018;8.536;2023-09-19T03:31:48;10.63;;;2.90;;
11608;SDS011;5860;52.018;8.536;2023-09-19T03:34:15;6.13;;;3.13;;
11608;SDS011;5860;52.018;8.536;2023-09-19T03:36:42;10.43;;;3.60;;
11608;SDS011;5860;52.018;8.536;2023-09-19T03:39:09;11.00;;;3.53;;
11608;SDS011;5860;52.018;8.536;2023-09-19T03:41:36;11.43;;;3.07;;
11608;SDS011;5860;52.018;8.536;2023-09-19T03:44:03;12.67;;;3.03;;
11608;SDS011;5860;52.018;8.536;2023-09-19T03:46:30;10.40;;;3.23;;
11608;SDS011;5860;52.018;8.536;2023-09-19T03:48:58;9.73;;;3.43;;
11608;SDS011;5860;52.018;8.536;2023-09-19T03:51:25;9.67;;;3.07;;
11608;SDS011;5860;52.018;8.536;2023-09-19T03:53:52;12.63;;;2.90;;
11608;SDS011;5860;52.018;8.536;2023-09-19T03:56:19;8.70;;;2.93;;
11608;SDS011;5860;52.018;8.536;2023-09-19T03:58:46;8.53;;;3.03;;
11608;SDS011;5860;52.018;8.536;2023-09-19T04:01:13;11.17;;;2.90;;
11608;SDS011;5860;52.018;8.536;2023-09-19T04:03:40;13.30;;;2.70;;
11608;SDS011;5860;52.018;8.536;2023-09-19T04:06:14;13.17;;;3.23;;
11608;SDS011;5860;52.018;8.536;2023-09-19T04:08:42;12.00;;;3.10;;
11608;SDS011;5860;52.018;8.536;2023-09-19T04:11:10;10.07;;;3.13;;
11608;SDS011;5860;52.018;8.536;2023-09-19T04:13:37;13.23;;;3.00;;
11608;SDS011;5860;52.018;8.536;2023-09-19T04:16:04;12.63;;;3.33;;
11608;SDS011;5860;52.018;8.536;2023-09-19T04:18:33;12.70;;;3.23;;
11608;SDS011;5860;52.018;8.536;2023-09-19T04:21:03;12.23;;;3.10;;
11608;SDS011;5860;52.018;8.536;2023-09-19T04:23:32;8.73;;;3.03;;
11608;SDS011;5860;52.018;8.536;2023-09-19T04:25:59;13.80;;;3.30;;
11608;SDS011;5860;52.018;8.536;2023-09-19T04:28:26;10.77;;;3.10;;
11608;SDS011;5860;52.018;8.536;2023-09-19T04:30:54;9.97;;;2.83;;
11608;SDS011;5860;52.018;8.536;2023-09-19T04:33:21;9.27;;;2.77;;
11608;SDS011;5860;52.018;8.536;2023-09-19T04:35:49;9.10;;;2.70;;
11608;SDS011;5860;52.018;8.536;2023-09-19T04:38:19;15.37;;;3.00;;
11608;SDS011;5860;52.018;8.536;2023-09-19T04:40:46;12.37;;;2.93;;
11608;SDS011;5860;52.018;8.536;2023-09-19T04:43:14;13.97;;;3.07;;
11608;SDS011;5860;52.018;8.536;2023-09-19T04:45:41;16.07;;;3.27;;
11608;SDS011;5860;52.018;8.536;2023-09-19T04:48:08;12.27;;;3.33;;
11608;SDS011;5860;52.018;8.536;2023-09-19T04:50:35;10.83;;;2.67;;
11608;SDS011;5860;52.018;8.536;2023-09-19T04:53:03;12.23;;;2.83;;
11608;SDS011;5860;52.018;8.536;2023-09-19T04:55:30;8.27;;;2.50;;
11608;SDS011;5860;52.018;8.536;2023-09-19T04:57:59;10.93;;;3.17;;
11608;SDS011;5860;52.018;8.536;2023-09-19T05:00:26;14.50;;;2.80;;
11608;SDS011;5860;52.018;8.536;2023-09-19T05:02:56;11.10;;;3.03;;
11608;SDS011;5860;52.018;8.536;2023-09-19T05:05:24;9.77;;;2.80;;
11608;SDS011;5860;52.018;8.536;2023-09-19T05:07:52;11.60;;;3.10;;
11608;SDS011;5860;52.018;8.536;2023-09-19T05:10:20;13.53;;;2.60;;
11608;SDS011;5860;52.018;8.536;2023-09-19T05:12:48;11.97;;;2.57;;
11608;SDS011;5860;52.018;8.536;2023-09-19T05:15:18;13.33;;;3.10;;
11608;SDS011;5860;52.018;8.536;2023-09-19T05:17:51;11.73;;;3.00;;
11608;SDS011;5860;52.018;8.536;2023-09-19T05:20:24;7.47;;;2.23;;
11608;SDS011;5860;52.018;8.536;2023-09-19T05:22:59;10.87;;;3.00;;
11608;SDS011;5860;52.018;8.536;2023-09-19T05:25:31;11.40;;;3.10;;
11608;SDS011;5860;52.018;8.536;2023-09-19T05:27:59;12.53;;;2.97;;
11608;SDS011;5860;52.018;8.536;2023-09-19T05:30:27;12.87;;;3.50;;
11608;SDS011;5860;52.018;8.536;2023-09-19T05:32:53;12.43;;;3.47;;
11608;SDS011;5860;52.018;8.536;2023-09-19T05:35:21;10.97;;;2.90;;
11608;SDS011;5860;52.018;8.536;2023-09-19T05:37:52;10.13;;;2.73;;
11608;SDS011;5860;52.018;8.536;2023-09-19T05:40:21;11.03;;;2.80;;
11608;SDS011;5860;52.018;8.536;2023-09-19T05:42:48;10.57;;;3.03;;
11608;SDS011;5860;52.018;8.536;2023-09-19T05:45:17;10.53;;;2.80;;
11608;SDS011;5860;52.018;8.536;2023-09-19T05:47:50;9.30;;;2.63;;
11608;SDS011;5860;52.018;8.536;2023-09-19T05:50:22;12.67;;;3.37;;
11608;SDS011;5860;52.018;8.536;2023-09-19T05:52:54;11.60;;;3.43;;
11608;SDS011;5860;52.018;8.536;2023-09-19T05:55:22;14.80;;;2.90;;
11608;SDS011;5860;52.018;8.536;2023-09-19T05:57:51;10.13;;;3.03;;
11608;SDS011;5860;52.018;8.536;2023-09-19T06:00:19;11.00;;;2.70;;
11608;SDS011;5860;52.018;8.536;2023-09-19T06:02:53;11.30;;;3.33;;
11608;SDS011;5860;52.018;8.536;2023-09-19T06:05:21;10.90;;;2.73;;
11608;SDS011;5860;52.018;8.536;2023-09-19T06:07:49;14.33;;;3.33;;
11608;SDS011;5860;52.018;8.536;2023-09-19T06:10:17;12.83;;;2.70;;
11608;SDS011;5860;52.018;8.536;2023-09-19T06:12:44;11.40;;;2.83;;
11608;SDS011;5860;52.018;8.536;2023-09-19T06:15:12;10.80;;;3.07;;
11608;SDS011;5860;52.018;8.536;2023-09-19T06:17:50;13.87;;;3.70;;
11608;SDS011;5860;52.018;8.536;2023-09-19T06:20:26;8.47;;;2.50;;
11608;SDS011;5860;52.018;8.536;2023-09-19T06:22:53;9.60;;;3.03;;
11608;SDS011;5860;52.018;8.536;2023-09-19T06:25:20;10.57;;;2.60;;
11608;SDS011;5860;52.018;8.536;2023-09-19T06:27:49;9.40;;;2.93;;
11608;SDS011;5860;52.018;8.536;2023-09-19T06:30:21;8.90;;;2.53;;
11608;SDS011;5860;52.018;8.536;2023-09-19T06:32:55;8.43;;;2.50;;
11608;SDS011;5860;52.018;8.536;2023-09-19T06:35:26;7.95;;;2.45;;
11608;SDS011;5860;52.018;8.536;2023-09-19T06:37:55;6.03;;;1.90;;
11608;SDS011;5860;52.018;8.536;2023-09-19T06:40:24;10.37;;;3.13;;
11608;SDS011;5860;52.018;8.536;2023-09-19T06:42:52;8.68;;;2.50;;
11608;SDS011;5860;52.018;8.536;2023-09-19T06:45:20;10.60;;;2.70;;
11608;SDS011;5860;52.018;8.536;2023-09-19T06:47:49;10.73;;;2.40;;
11608;SDS011;5860;52.018;8.536;2023-09-19T06:50:18;8.87;;;2.17;;
11608;SDS011;5860;52.018;8.536;2023-09-19T06:52:52;12.17;;;2.77;;
11608;SDS011;5860;52.018;8.536;2023-09-19T06:55:20;9.57;;;2.67;;
11608;SDS011;5860;52.018;8.536;2023-09-19T06:57:51;9.73;;;2.70;;
11608;SDS011;5860;52.018;8.536;2023-09-19T07:00:20;6.93;;;2.27;;
11608;SDS011;5860;52.018;8.536;2023-09-19T07:03:01;8.17;;;2.60;;
11608;SDS011;5860;52.018;8.536;2023-09-19T07:05:34;7.57;;;2.37;;
11608;SDS011;5860;52.018;8.536;2023-09-19T07:08:09;9.87;;;2.33;;
11608;SDS011;5860;52.018;8.536;2023-09-19T07:10:39;13.83;;;2.83;;
11608;SDS011;5860;52.018;8.536;2023-09-19T07:13:07;8.90;;;2.37;;
11608;SDS011;5860;52.018;8.536;2023-09-19T07:15:38;9.87;;;2.77;;
11608;SDS011;5860;52.018;8.536;2023-09-19T07:18:06;11.73;;;3.03;;
11608;SDS011;5860;52.018;8.536;2023-09-19T07:20:35;8.37;;;2.60;;
11608;SDS011;5860;52.018;8.536;2023-09-19T07:23:02;10.10;;;2.63;;
11608;SDS011;5860;52.018;8.536;2023-09-19T07:25:29;12.20;;;2.87;;
11608;SDS011;5860;52.018;8.536;2023-09-19T07:27:59;11.50;;;2.43;;
11608;SDS011;5860;52.018;8.536;2023-09-19T07:30:27;5.80;;;2.03;;
11608;SDS011;5860;52.018;8.536;2023-09-19T07:32:55;8.13;;;2.13;;
11608;SDS011;5860;52.018;8.536;2023-09-19T07:35:22;10.23;;;2.97;;
11608;SDS011;5860;52.018;8.536;2023-09-19T07:37:49;9.97;;;2.97;;
11608;SDS011;5860;52.018;8.536;2023-09-19T07:40:18;7.60;;;3.10;;
11608;SDS011;5860;52.018;8.536;2023-09-19T07:42:47;4.23;;;1.60;;
11608;SDS011;5860;52.018;8.536;2023-09-19T07:45:14;8.07;;;2.50;;
11608;SDS011;5860;52.018;8.536;2023-09-19T07:47:47;6.77;;;2.63;;
11608;SDS011;5860;52.018;8.536;2023-09-19T07:50:15;8.53;;;2.70;;
11608;SDS011;5860;52.018;8.536;2023-09-19T07:52:45;9.87;;;2.47;;
11608;SDS011;5860;52.018;8.536;2023-09-19T07:55:13;8.43;;;2.27;;
11608;SDS011;5860;52.018;8.536;2023-09-19T07:57:43;8.40;;;2.53;;
11608;SDS011;5860;52.018;8.536;2023-09-19T08:00:10;6.30;;;2.40;;
11608;SDS011;5860;52.018;8.536;2023-09-19T08:02:37;10.43;;;2.70;;
11608;SDS011;5860;52.018;8.536;2023-09-19T08:05:06;7.33;;;2.00;;
11608;SDS011;5860;52.018;8.536;2023-09-19T08:07:38;8.90;;;2.33;;
11608;SDS011;5860;52.018;8.536;2023-09-19T08:10:07;9.20;;;2.37;;
11608;SDS011;5860;52.018;8.536;2023-09-19T08:12:34;8.83;;;2.37;;
11608;SDS011;5860;52.018;8.536;2023-09-19T08:15:15;12.80;;;2.40;;
11608;SDS011;5860;52.018;8.536;2023-09-19T08:17:45;10.07;;;2.63;;
11608;SDS011;5860;52.018;8.536;2023-09-19T08:20:14;10.07;;;2.63;;
11608;SDS011;5860;52.018;8.536;2023-09-19T08:22:49;11.67;;;2.40;;
11608;SDS011;5860;52.018;8.536;2023-09-19T08:25:19;8.17;;;2.20;;
11608;SDS011;5860;52.018;8.536;2023-09-19T08:27:48;5.53;;;2.63;;
11608;SDS011;5860;52.018;8.536;2023-09-19T08:30:16;10.47;;;2.70;;
11608;SDS011;5860;52.018;8.536;2023-09-19T08:32:51;10.10;;;2.80;;
11608;SDS011;5860;52.018;8.536;2023-09-19T08:35:25;9.23;;;2.77;;
11608;SDS011;5860;52.018;8.536;2023-09-19T08:37:52;10.73;;;2.63;;
11608;SDS011;5860;52.018;8.536;2023-09-19T08:40:19;7.63;;;2.20;;
11608;SDS011;5860;52.018;8.536;2023-09-19T08:42:49;7.77;;;2.63;;
11608;SDS011;5860;52.018;8.536;2023-09-19T08:45:21;13.83;;;3.13;;
11608;SDS011;5860;52.018;8.536;2023-09-19T08:48:11;7.67;;;2.60;;
11608;SDS011;5860;52.018;8.536;2023-09-19T08:53:26;9.55;;;2.75;;
11608;SDS011;5860;52.018;8.536;2023-09-19T08:56:10;9.10;;;2.83;;
11608;SDS011;5860;52.018;8.536;2023-09-19T08:58:42;9.37;;;2.77;;
11608;SDS011;5860;52.018;8.536;2023-09-19T09:01:15;9.75;;;2.95;;
11608;SDS011;5860;52.018;8.536;2023-09-19T09:03:43;9.67;;;2.67;;
11608;SDS011;5860;52.018;8.536;2023-09-19T09:06:15;7.87;;;2.73;;
11608;SDS011;5860;52.018;8.536;2023-09-19T09:08:45;9.23;;;2.73;;
11608;SDS011;5860;52.018;8.536;2023-09-19T09:11:13;10.93;;;2.88;;
11608;SDS011;5860;52.018;8.536;2023-09-19T09:13:42;7.87;;;2.67;;
11608;SDS011;5860;52.018;8.536;2023-09-19T09:16:12;10.43;;;2.97;;
11608;SDS011;5860;52.018;8.536;2023-09-19T09:18:44;10.57;;;3.07;;
11608;SDS011;5860;52.018;8.536;2023-09-19T09:21:12;10.15;;;2.75;;
11608;SDS011;5860;52.018;8.536;2023-09-19T09:23:41;9.35;;;2.80;;
11608;SDS011;5860;52.018;8.536;2023-09-19T09:26:07;11.15;;;2.55;;
11608;SDS011;5860;52.018;8.536;2023-09-19T09:28:35;10.20;;;2.67;;
11608;SDS011;5860;52.018;8.536;2023-09-19T09:31:23;10.57;;;2.67;;
11608;SDS011;5860;52.018;8.536;2023-09-19T09:33:54;12.43;;;2.42;;
11608;SDS011;5860;52.018;8.536;2023-09-19T09:39:01;10.10;;;2.63;;
11608;SDS011;5860;52.018;8.536;2023-09-19T09:41:42;8.13;;;2.35;;
11608;SDS011;5860;52.018;8.536;2023-09-19T09:44:16;7.80;;;2.47;;
11608;SDS011;5860;52.018;8.536;2023-09-19T09:46:46;7.20;;;2.58;;
11608;SDS011;5860;52.018;8.536;2023-09-19T09:49:24;6.45;;;2.28;;
11608;SDS011;5860;52.018;8.536;2023-09-19T09:52:02;7.65;;;2.70;;
11608;SDS011;5860;52.018;8.536;2023-09-19T09:54:37;7.03;;;2.83;;
11608;SDS011;5860;52.018;8.536;2023-09-19T09:57:09;6.90;;;2.53;;
11608;SDS011;5860;52.018;8.536;2023-09-19T09:59:44;10.02;;;2.85;;
11608;SDS011;5860;52.018;8.536;2023-09-19T10:02:25;9.73;;;2.80;;
11608;SDS011;5860;52.018;8.536;2023-09-19T10:04:56;9.13;;;2.87;;
11608;SDS011;5860;52.018;8.536;2023-09-19T10:07:36;11.25;;;2.80;;
11608;SDS011;5860;52.018;8.536;2023-09-19T10:10:10;11.65;;;2.83;;
11608;SDS011;5860;52.018;8.536;2023-09-19T10:12:44;11.53;;;2.73;;
11608;SDS011;5860;52.018;8.536;2023-09-19T10:15:14;6.38;;;2.03;;
11608;SDS011;5860;52.018;8.536;2023-09-19T10:17:43;8.65;;;2.88;;
11608;SDS011;5860;52.018;8.536;2023-09-19T10:20:12;8.38;;;3.13;;
11608;SDS011;5860;52.018;8.536;2023-09-19T10:23:00;9.57;;;2.95;;
11608;SDS011;5860;52.018;8.536;2023-09-19T10:25:30;8.50;;;2.88;;
11608;SDS011;5860;52.018;8.536;2023-09-19T10:27:57;8.73;;;3.63;;
11608;SDS011;5860;52.018;8.536;2023-09-19T10:30:31;8.57;;;3.10;;
11608;SDS011;5860;52.018;8.536;2023-09-19T10:33:02;7.20;;;2.63;;
11608;SDS011;5860;52.018;8.536;2023-09-19T10:35:30;7.18;;;2.65;;
11608;SDS011;5860;52.018;8.536;2023-09-19T10:38:00;9.23;;;2.70;;
11608;SDS011;5860;52.018;8.536;2023-09-19T10:40:28;11.23;;;2.58;;
11608;SDS011;5860;52.018;8.536;2023-09-19T10:42:59;6.85;;;2.88;;
11608;SDS011;5860;52.018;8.536;2023-09-19T10:45:34;10.15;;;4.03;;
11608;SDS011;5860;52.018;8.536;2023-09-19T10:48:02;7.45;;;2.47;;
11608;SDS011;5860;52.018;8.536;2023-09-19T10:50:30;7.07;;;3.00;;
11608;SDS011;5860;52.018;8.536;2023-09-19T10:53:04;8.52;;;2.90;;
11608;SDS011;5860;52.018;8.536;2023-09-19T10:55:34;8.05;;;2.95;;
11608;SDS011;5860;52.018;8.536;2023-09-19T10:58:02;6.10;;;2.95;;
11608;SDS011;5860;52.018;8.536;2023-09-19T11:00:54;11.77;;;3.13;;
11608;SDS011;5860;52.018;8.536;2023-09-19T11:03:28;8.35;;;2.50;;
11608;SDS011;5860;52.018;8.536;2023-09-19T11:06:00;9.75;;;2.75;;
11608;SDS011;5860;52.018;8.536;2023-09-19T11:11:43;8.38;;;3.10;;
11608;SDS011;5860;52.018;8.536;2023-09-19T11:30:41;9.43;;;2.80;;
11608;SDS011;5860;52.018;8.536;2023-09-19T11:33:19;7.03;;;2.35;;
11608;SDS011;5860;52.018;8.536;2023-09-19T11:36:01;7.50;;;2.50;;
11608;SDS011;5860;52.018;8.536;2023-09-19T11:46:27;7.45;;;2.83;;
11608;SDS011;5860;52.018;8.536;2023-09-19T11:48:55;6.35;;;2.63;;
11608;SDS011;5860;52.018;8.536;2023-09-19T11:51:42;12.18;;;3.95;;
11608;SDS011;5860;52.018;8.536;2023-09-19T11:54:11;10.20;;;3.05;;
11608;SDS011;5860;52.018;8.536;2023-09-19T11:56:45;7.22;;;2.72;;
11608;SDS011;5860;52.018;8.536;2023-09-19T11:59:20;5.97;;;2.83;;
11608;SDS011;5860;52.018;8.536;2023-09-19T12:01:52;7.82;;;2.58;;
11608;SDS011;5860;52.018;8.536;2023-09-19T12:07:09;11.35;;;3.33;;
11608;SDS011;5860;52.018;8.536;2023-09-19T12:09:42;10.20;;;2.25;;
11608;SDS011;5860;52.018;8.536;2023-09-19T12:12:23;7.07;;;2.60;;
11608;SDS011;5860;52.018;8.536;2023-09-19T12:14:54;6.78;;;2.25;;
11608;SDS011;5860;52.018;8.536;2023-09-19T12:17:35;6.63;;;2.67;;
11608;SDS011;5860;52.018;8.536;2023-09-19T12:20:08;6.20;;;2.28;;
11608;SDS011;5860;52.018;8.536;2023-09-19T12:22:39;5.47;;;2.22;;
11608;SDS011;5860;52.018;8.536;2023-09-19T12:25:10;8.40;;;2.58;;
11608;SDS011;5860;52.018;8.536;2023-09-19T12:27:44;11.65;;;2.47;;
11608;SDS011;5860;52.018;8.536;2023-09-19T12:30:14;7.50;;;2.45;;
11608;SDS011;5860;52.018;8.536;2023-09-19T12:32:47;12.32;;;2.60;;
11608;SDS011;5860;52.018;8.536;2023-09-19T12:35:28;7.25;;;2.42;;
11608;SDS011;5860;52.018;8.536;2023-09-19T12:37:57;8.35;;;2.28;;
11608;SDS011;5860;52.018;8.536;2023-09-19T12:40:25;9.40;;;2.78;;
11608;SDS011;5860;52.018;8.536;2023-09-19T12:42:56;9.48;;;3.40;;
11608;SDS011;5860;52.018;8.536;2023-09-19T12:45:31;7.60;;;2.30;;
11608;SDS011;5860;52.018;8.536;2023-09-19T12:48:19;7.53;;;2.70;;
11608;SDS011;5860;52.018;8.536;2023-09-19T12:51:00;7.70;;;2.72;;
11608;SDS011;5860;52.018;8.536;2023-09-19T12:53:30;12.07;;;2.70;;
11608;SDS011;5860;52.018;8.536;2023-09-19T12:55:59;5.93;;;2.30;;
11608;SDS011;5860;52.018;8.536;2023-09-19T12:58:26;4.80;;;2.13;;
11608;SDS011;5860;52.018;8.536;2023-09-19T13:00:57;7.72;;;2.22;;
11608;SDS011;5860;52.018;8.536;2023-09-19T13:05:55;9.75;;;2.10;;
11608;SDS011;5860;52.018;8.536;2023-09-19T13:08:27;6.28;;;2.33;;
11608;SDS011;5860;52.018;8.536;2023-09-19T13:11:16;7.75;;;2.80;;
11608;SDS011;5860;52.018;8.536;2023-09-19T13:13:46;5.47;;;2.17;;
11608;SDS011;5860;52.018;8.536;2023-09-19T13:16:20;6.50;;;2.22;;
11608;SDS011;5860;52.018;8.536;2023-09-19T13:18:50;5.07;;;2.03;;
11608;SDS011;5860;52.018;8.536;2023-09-19T13:21:32;8.35;;;2.13;;
11608;SDS011;5860;52.018;8.536;2023-09-19T13:24:21;6.05;;;2.00;;
11608;SDS011;5860;52.018;8.536;2023-09-19T13:26:52;8.38;;;2.22;;
11608;SDS011;5860;52.018;8.536;2023-09-19T13:29:19;9.70;;;2.58;;
11608;SDS011;5860;52.018;8.536;2023-09-19T13:31:49;4.78;;;2.00;;
11608;SDS011;5860;52.018;8.536;2023-09-19T13:34:19;7.53;;;2.00;;
11608;SDS011;5860;52.018;8.536;2023-09-19T13:36:47;4.63;;;1.88;;
11608;SDS011;5860;52.018;8.536;2023-09-19T13:39:17;6.53;;;1.77;;
11608;SDS011;5860;52.018;8.536;2023-09-19T13:41:44;4.68;;;2.15;;
11608;SDS011;5860;52.018;8.536;2023-09-19T13:44:13;5.97;;;1.80;;
11608;SDS011;5860;52.018;8.536;2023-09-19T13:46:40;6.60;;;2.25;;
11608;SDS011;5860;52.018;8.536;2023-09-19T13:49:13;5.32;;;1.98;;
11608;SDS011;5860;52.018;8.536;2023-09-19T13:51:40;8.18;;;2.17;;
11608;SDS011;5860;52.018;8.536;2023-09-19T13:54:10;5.40;;;1.98;;
11608;SDS011;5860;52.018;8.536;2023-09-19T13:56:38;3.95;;;1.83;;
11608;SDS011;5860;52.018;8.536;2023-09-19T13:59:06;7.35;;;2.10;;
11608;SDS011;5860;52.018;8.536;2023-09-19T14:01:33;6.50;;;2.08;;
11608;SDS011;5860;52.018;8.536;2023-09-19T14:04:00;5.25;;;1.70;;
11608;SDS011;5860;52.018;8.536;2023-09-19T14:06:28;6.57;;;1.80;;
11608;SDS011;5860;52.018;8.536;2023-09-19T14:08:55;8.15;;;1.83;;
11608;SDS011;5860;52.018;8.536;2023-09-19T14:11:22;6.07;;;1.88;;
11608;SDS011;5860;52.018;8.536;2023-09-19T14:13:49;6.30;;;2.20;;
11608;SDS011;5860;52.018;8.536;2023-09-19T14:16:16;6.35;;;1.73;;
11608;SDS011;5860;52.018;8.536;2023-09-19T14:18:44;5.25;;;2.03;;
11608;SDS011;5860;52.018;8.536;2023-09-19T14:21:12;4.38;;;1.65;;
11608;SDS011;5860;52.018;8.536;2023-09-19T14:23:40;5.93;;;2.05;;
11608;SDS011;5860;52.018;8.536;2023-09-19T14:26:09;4.13;;;1.88;;
11608;SDS011;5860;52.018;8.536;2023-09-19T14:28:36;4.50;;;1.80;;
11608;SDS011;5860;52.018;8.536;2023-09-19T14:31:09;6.00;;;1.95;;
11608;SDS011;5860;52.018;8.536;2023-09-19T14:33:37;7.95;;;2.25;;
11608;SDS011;5860;52.018;8.536;2023-09-19T14:36:05;5.28;;;1.63;;
11608;SDS011;5860;52.018;8.536;2023-09-19T14:38:37;6.13;;;1.70;;
11608;SDS011;5860;52.018;8.536;2023-09-19T14:41:05;7.35;;;1.90;;
11608;SDS011;5860;52.018;8.536;2023-09-19T14:43:33;6.15;;;2.08;;
11608;SDS011;5860;52.018;8.536;2023-09-19T14:46:03;8.65;;;2.20;;
11608;SDS011;5860;52.018;8.536;2023-09-19T14:48:30;7.95;;;2.03;;
11608;SDS011;5860;52.018;8.536;2023-09-19T14:51:01;4.93;;;1.77;;
11608;SDS011;5860;52.018;8.536;2023-09-19T14:53:29;5.80;;;2.00;;
11608;SDS011;5860;52.018;8.536;2023-09-19T14:55:59;4.22;;;2.20;;
11608;SDS011;5860;52.018;8.536;2023-09-19T14:58:30;4.65;;;2.03;;
11608;SDS011;5860;52.018;8.536;2023-09-19T15:01:04;3.90;;;2.00;;
11608;SDS011;5860;52.018;8.536;2023-09-19T15:03:39;5.45;;;1.80;;
11608;SDS011;5860;52.018;8.536;2023-09-19T15:06:10;4.32;;;2.10;;
11608;SDS011;5860;52.018;8.536;2023-09-19T15:08:44;7.75;;;2.15;;
11608;SDS011;5860;52.018;8.536;2023-09-19T15:11:14;5.25;;;2.13;;
11608;SDS011;5860;52.018;8.536;2023-09-19T15:13:47;6.93;;;2.38;;
11608;SDS011;5860;52.018;8.536;2023-09-19T15:16:17;8.35;;;2.05;;
11608;SDS011;5860;52.018;8.536;2023-09-19T15:18:45;8.40;;;2.60;;
11608;SDS011;5860;52.018;8.536;2023-09-19T15:21:14;4.45;;;2.10;;
11608;SDS011;5860;52.018;8.536;2023-09-19T15:23:42;4.35;;;2.10;;
11608;SDS011;5860;52.018;8.536;2023-09-19T15:26:12;4.25;;;2.00;;
11608;SDS011;5860;52.018;8.536;2023-09-19T15:28:43;7.03;;;2.15;;
11608;SDS011;5860;52.018;8.536;2023-09-19T15:31:11;10.60;;;2.45;;
11608;SDS011;5860;52.018;8.536;2023-09-19T15:33:39;5.95;;;2.15;;
11608;SDS011;5860;52.018;8.536;2023-09-19T15:36:07;5.85;;;1.83;;
11608;SDS011;5860;52.018;8.536;2023-09-19T15:38:55;5.95;;;2.00;;
11608;SDS011;5860;52.018;8.536;2023-09-19T15:41:24;4.65;;;1.70;;
11608;SDS011;5860;52.018;8.536;2023-09-19T15:43:56;4.75;;;1.90;;
11608;SDS011;5860;52.018;8.536;2023-09-19T15:46:25;6.35;;;1.52;;
11608;SDS011;5860;52.018;8.536;2023-09-19T15:48:53;6.28;;;1.83;;
11608;SDS011;5860;52.018;8.536;2023-09-19T15:51:20;4.57;;;1.90;;
11608;SDS011;5860;52.018;8.536;2023-09-19T15:53:48;4.80;;;1.63;;
11608;SDS011;5860;52.018;8.536;2023-09-19T15:56:17;5.78;;;1.90;;
11608;SDS011;5860;52.018;8.536;2023-09-19T15:58:45;3.80;;;1.52;;
11608;SDS011;5860;52.018;8.536;2023-09-19T16:01:13;3.72;;;1.50;;
11608;SDS011;5860;52.018;8.536;2023-09-19T16:03:45;7.30;;;1.75;;
11608;SDS011;5860;52.018;8.536;2023-09-19T16:06:21;3.17;;;1.60;;
11608;SDS011;5860;52.018;8.536;2023-09-19T16:08:53;3.38;;;1.38;;
11608;SDS011;5860;52.018;8.536;2023-09-19T16:11:25;3.05;;;1.40;;
11608;SDS011;5860;52.018;8.536;2023-09-19T16:13:53;3.00;;;1.23;;
11608;SDS011;5860;52.018;8.536;2023-09-19T16:16:21;3.85;;;1.50;;
11608;SDS011;5860;52.018;8.536;2023-09-19T16:18:51;6.13;;;1.90;;